createdAt,value
2019-03-30T00:01:49.216Z,100328.37
2019-03-30T00:04:17.577Z,100330.72
2019-03-30T00:06:45.968Z,100330.14
2019-03-30T00:09:14.387Z,100332.23
2019-03-30T00:11:43.138Z,100325.92
2019-03-30T00:14:11.530Z,100321.53
2019-03-30T00:16:39.952Z,100328.86
2019-03-30T00:19:08.345Z,100326.00
2019-03-30T00:21:36.741Z,100321.49
2019-03-30T00:24:05.320Z,100319.48
2019-03-30T00:26:33.712Z,100316.19
2019-03-30T00:29:02.109Z,100322.59
2019-03-30T00:31:30.525Z,100317.72
2019-03-30T00:33:58.911Z,100313.33
2019-03-30T00:36:27.315Z,100309.94
2019-03-30T00:38:55.716Z,100312.68
2019-03-30T00:41:24.121Z,100310.25
2019-03-30T00:43:52.518Z,100308.30
2019-03-30T00:46:20.928Z,100307.77
2019-03-30T00:48:49.749Z,100302.88
2019-03-30T00:51:18.186Z,100308.58
2019-03-30T00:53:46.602Z,100305.75
2019-03-30T00:56:14.993Z,100306.73
2019-03-30T00:58:43.383Z,100302.77
2019-03-30T01:01:11.971Z,100299.84
2019-03-30T01:03:40.612Z,100291.48
2019-03-30T01:06:09.296Z,100292.31
2019-03-30T01:08:37.689Z,100281.28
2019-03-30T01:11:06.083Z,100286.84
2019-03-30T01:13:34.854Z,100286.37
2019-03-30T01:16:03.250Z,100288.38
2019-03-30T01:18:31.751Z,100282.56
2019-03-30T01:21:00.139Z,100281.59
2019-03-30T01:23:28.523Z,100279.22
2019-03-30T01:25:56.940Z,100286.92
2019-03-30T01:28:25.335Z,100287.26
2019-03-30T01:30:53.725Z,100288.53
2019-03-30T01:33:22.152Z,100278.08
2019-03-30T01:35:51.123Z,100279.83
2019-03-30T01:38:19.516Z,100287.19
2019-03-30T01:40:48.164Z,100294.84
2019-03-30T01:43:16.554Z,100290.16
2019-03-30T01:45:44.952Z,100292.74
2019-03-30T01:48:13.381Z,100287.59
2019-03-30T01:50:41.776Z,100287.42
2019-03-30T01:53:10.164Z,100282.64
2019-03-30T01:55:38.575Z,100283.34
2019-03-30T01:58:06.966Z,100278.25
2019-03-30T02:00:35.426Z,100275.80
2019-03-30T02:03:03.835Z,100277.59
2019-03-30T02:05:32.232Z,100280.13
2019-03-30T02:08:00.641Z,100273.84
2019-03-30T02:10:45.999Z,100279.69
2019-03-30T02:13:14.462Z,100284.15
2019-03-30T02:15:42.921Z,100283.50
2019-03-30T02:18:11.354Z,100278.05
2019-03-30T02:20:42.469Z,100278.25
2019-03-30T02:23:11.392Z,100281.55
2019-03-30T02:25:39.886Z,100272.29
2019-03-30T02:28:08.819Z,100275.55
2019-03-30T02:30:37.554Z,100264.31
2019-03-30T02:33:06.127Z,100266.70
2019-03-30T02:35:34.517Z,100261.86
2019-03-30T02:38:02.914Z,100261.52
2019-03-30T02:40:31.400Z,100259.43
2019-03-30T02:43:00.323Z,100256.75
2019-03-30T02:45:28.714Z,100251.52
2019-03-30T02:47:57.121Z,100257.70
2019-03-30T02:50:25.512Z,100250.39
2019-03-30T02:52:54.356Z,100252.67
2019-03-30T02:55:22.772Z,100252.30
2019-03-30T02:57:51.165Z,100254.95
2019-03-30T03:00:19.862Z,100250.06
2019-03-30T03:02:48.284Z,100243.77
2019-03-30T03:05:17.014Z,100248.53
2019-03-30T03:07:45.406Z,100245.58
2019-03-30T03:10:14.677Z,100245.88
2019-03-30T03:12:43.075Z,100240.66
2019-03-30T03:15:11.924Z,100249.31
2019-03-30T03:17:40.327Z,100241.02
2019-03-30T03:20:08.960Z,100240.19
2019-03-30T03:22:37.657Z,100236.61
2019-03-30T03:25:07.069Z,100236.77
2019-03-30T03:27:35.465Z,100233.00
2019-03-30T03:30:04.572Z,100233.62
2019-03-30T03:32:33.000Z,100230.09
2019-03-30T03:35:01.426Z,100229.29
2019-03-30T03:37:43.559Z,100228.32
2019-03-30T03:40:00.614Z,100231.22
2019-03-30T03:42:28.970Z,100238.22
2019-03-30T03:44:57.382Z,100227.88
2019-03-30T03:47:25.801Z,100228.89
2019-03-30T03:49:54.183Z,100228.97
2019-03-30T03:52:23.028Z,100225.38
2019-03-30T03:54:53.099Z,100221.36
2019-03-30T03:57:23.702Z,100224.30
2019-03-30T03:59:53.477Z,100219.09
2019-03-30T04:02:25.635Z,100222.23
2019-03-30T04:04:55.762Z,100221.77
2019-03-30T04:07:24.832Z,100213.87
2019-03-30T04:09:54.712Z,100222.52
2019-03-30T04:12:23.954Z,100206.97
2019-03-30T04:14:53.610Z,100215.93
2019-03-30T04:17:22.250Z,100217.55
2019-03-30T04:19:50.624Z,100212.83
2019-03-30T04:22:19.049Z,100217.81
2019-03-30T04:24:47.452Z,100211.62
2019-03-30T04:27:15.845Z,100215.68
2019-03-30T04:29:44.243Z,100216.16
2019-03-30T04:32:12.629Z,100212.68
2019-03-30T04:34:41.403Z,100216.52
2019-03-30T04:37:09.799Z,100218.89
2019-03-30T04:39:38.213Z,100218.48
2019-03-30T04:42:06.695Z,100211.36
2019-03-30T04:44:35.178Z,100217.71
2019-03-30T04:47:03.574Z,100220.63
2019-03-30T04:49:31.987Z,100220.98
2019-03-30T04:52:00.377Z,100220.98
2019-03-30T04:54:28.767Z,100220.98
2019-03-30T04:56:57.189Z,100219.69
2019-03-30T04:59:25.578Z,100221.82
2019-03-30T05:01:53.974Z,100216.86
2019-03-30T05:04:22.641Z,100217.29
2019-03-30T05:06:51.040Z,100215.02
2019-03-30T05:09:19.422Z,100224.03
2019-03-30T05:11:48.189Z,100225.62
2019-03-30T05:14:16.579Z,100227.59
2019-03-30T05:16:44.971Z,100229.88
2019-03-30T05:19:13.745Z,100227.48
2019-03-30T05:21:42.139Z,100232.12
2019-03-30T05:24:10.526Z,100235.59
2019-03-30T05:26:38.938Z,100225.86
2019-03-30T05:29:07.326Z,100234.02
2019-03-30T05:31:35.719Z,100231.89
2019-03-30T05:34:04.129Z,100239.92
2019-03-30T05:36:32.527Z,100238.83
2019-03-30T05:39:01.104Z,100243.36
2019-03-30T05:41:29.492Z,100241.98
2019-03-30T05:43:57.883Z,100247.18
2019-03-30T05:46:26.293Z,100240.87
2019-03-30T05:48:54.683Z,100235.00
2019-03-30T05:51:23.097Z,100241.33
2019-03-30T05:53:51.490Z,100233.72
2019-03-30T05:56:19.891Z,100232.97
2019-03-30T05:58:48.302Z,100238.75
2019-03-30T06:01:16.693Z,100233.55
2019-03-30T06:03:45.081Z,100234.58
2019-03-30T06:06:13.497Z,100237.80
2019-03-30T06:08:41.899Z,100241.50
2019-03-30T06:11:10.297Z,100244.00
2019-03-30T06:13:38.725Z,100241.59
2019-03-30T06:16:07.123Z,100245.80
2019-03-30T06:18:35.534Z,100241.00
2019-03-30T06:21:03.949Z,100237.45
2019-03-30T06:23:32.344Z,100240.33
2019-03-30T06:26:00.741Z,100238.30
2019-03-30T06:28:29.295Z,100241.82
2019-03-30T06:30:59.288Z,100237.08
2019-03-30T06:33:27.664Z,100242.27
2019-03-30T06:35:56.091Z,100238.06
2019-03-30T06:38:24.559Z,100236.45
2019-03-30T06:40:52.957Z,100239.59
2019-03-30T06:43:21.362Z,100240.03
2019-03-30T06:45:49.829Z,100242.47
2019-03-30T06:48:18.540Z,100243.03
2019-03-30T06:50:46.934Z,100244.37
2019-03-30T06:53:15.330Z,100237.77
2019-03-30T06:55:43.749Z,100232.28
2019-03-30T06:58:12.143Z,100238.70
2019-03-30T07:00:40.586Z,100237.03
2019-03-30T07:03:12.031Z,100239.30
2019-03-30T07:05:41.966Z,100239.34
2019-03-30T07:08:12.904Z,100238.50
2019-03-30T07:10:42.971Z,100238.00
2019-03-30T07:13:11.372Z,100238.23
2019-03-30T07:15:48.461Z,100237.88
2019-03-30T07:18:17.594Z,100238.89
2019-03-30T07:20:45.991Z,100238.65
2019-03-30T07:23:14.409Z,100238.58
2019-03-30T07:25:42.815Z,100234.56
2019-03-30T07:28:11.205Z,100230.32
2019-03-30T07:30:39.623Z,100231.50
2019-03-30T07:33:08.022Z,100223.24
2019-03-30T07:35:36.762Z,100220.17
2019-03-30T07:38:05.172Z,100227.01
2019-03-30T07:40:34.019Z,100214.02
2019-03-30T07:43:02.539Z,100216.16
2019-03-30T07:45:31.104Z,100214.05
2019-03-30T07:47:59.508Z,100213.66
2019-03-30T07:50:27.913Z,100214.22
2019-03-30T07:52:56.333Z,100217.80
2019-03-30T07:55:24.744Z,100218.44
2019-03-30T07:57:53.196Z,100214.97
2019-03-30T08:00:22.035Z,100216.95
2019-03-30T08:02:50.446Z,100217.57
2019-03-30T08:05:18.851Z,100206.23
2019-03-30T08:07:48.179Z,100208.98
2019-03-30T08:10:16.748Z,100207.34
2019-03-30T08:12:45.223Z,100214.53
2019-03-30T08:15:13.888Z,100212.50
2019-03-30T08:17:42.365Z,100206.16
2019-03-30T08:20:10.931Z,100210.30
2019-03-30T08:22:39.372Z,100211.75
2019-03-30T08:25:08.124Z,100209.19
2019-03-30T08:27:36.518Z,100207.03
2019-03-30T08:30:06.793Z,100214.13
2019-03-30T08:32:35.205Z,100212.37
2019-03-30T08:35:04.141Z,100199.16
2019-03-30T08:37:32.693Z,100199.16
2019-03-30T08:40:01.094Z,100205.75
2019-03-30T08:42:29.496Z,100198.29
2019-03-30T08:44:57.919Z,100192.57
2019-03-30T08:47:26.314Z,100195.72
2019-03-30T08:49:54.730Z,100188.21
2019-03-30T08:52:23.150Z,100190.86
2019-03-30T08:54:51.722Z,100189.00
2019-03-30T08:57:20.119Z,100188.53
2019-03-30T08:59:48.550Z,100177.43
2019-03-30T09:02:16.956Z,100180.02
2019-03-30T09:04:45.368Z,100181.73
2019-03-30T09:07:13.825Z,100175.45
2019-03-30T09:09:42.213Z,100172.34
2019-03-30T09:12:10.612Z,100171.69
2019-03-30T09:14:39.114Z,100171.50
2019-03-30T09:17:07.515Z,100167.45
2019-03-30T09:19:35.908Z,100169.23
2019-03-30T09:22:04.344Z,100163.06
2019-03-30T09:24:32.755Z,100157.98
2019-03-30T09:27:01.161Z,100154.74
2019-03-30T09:29:29.590Z,100146.92
2019-03-30T09:31:57.997Z,100149.73
2019-03-30T09:34:26.394Z,100146.97
2019-03-30T09:36:54.910Z,100153.70
2019-03-30T09:39:23.630Z,100149.68
2019-03-30T09:41:51.984Z,100147.14
2019-03-30T09:44:20.414Z,100144.43
2019-03-30T09:46:48.825Z,100140.40
2019-03-30T09:49:17.226Z,100141.73
2019-03-30T09:51:45.765Z,100141.16
2019-03-30T09:54:23.661Z,100136.16
2019-03-30T09:56:44.315Z,100127.97
2019-03-30T09:59:12.755Z,100124.78
2019-03-30T10:01:41.157Z,100124.23
2019-03-30T10:04:09.557Z,100120.50
2019-03-30T10:06:37.990Z,100120.02
2019-03-30T10:09:06.835Z,100120.38
2019-03-30T10:11:35.237Z,100111.44
2019-03-30T10:14:03.689Z,100110.07
2019-03-30T10:16:32.109Z,100114.72
2019-03-30T10:19:00.511Z,100109.95
2019-03-30T10:21:28.915Z,100101.95
2019-03-30T10:23:57.972Z,100098.80
2019-03-30T10:26:27.330Z,100104.27
2019-03-30T10:28:55.735Z,100093.83
2019-03-30T10:31:24.154Z,100103.97
2019-03-30T10:33:52.555Z,100093.36
2019-03-30T10:36:20.963Z,100093.91
2019-03-30T10:38:49.387Z,100096.27
2019-03-30T10:41:17.795Z,100095.91
2019-03-30T10:43:46.194Z,100093.25
2019-03-30T10:46:14.646Z,100089.99
2019-03-30T10:48:43.100Z,100086.57
2019-03-30T10:51:11.515Z,100088.48
2019-03-30T10:53:39.932Z,100082.79
2019-03-30T10:56:08.335Z,100086.22
2019-03-30T10:58:36.757Z,100080.91
2019-03-30T11:01:05.173Z,100075.35
2019-03-30T11:03:33.561Z,100079.92
2019-03-30T11:06:01.994Z,100072.62
2019-03-30T11:08:30.528Z,100064.03
2019-03-30T11:10:58.931Z,100065.33
2019-03-30T11:13:27.335Z,100057.02
2019-03-30T11:15:55.756Z,100052.78
2019-03-30T11:18:24.152Z,100051.78
2019-03-30T11:20:52.560Z,100052.43
2019-03-30T11:23:20.992Z,100048.88
2019-03-30T11:25:49.424Z,100046.34
2019-03-30T11:28:17.819Z,100041.70
2019-03-30T11:30:46.247Z,100039.63
2019-03-30T11:33:14.654Z,100030.20
2019-03-30T11:35:43.063Z,100028.86
2019-03-30T11:38:11.519Z,100033.97
2019-03-30T11:40:39.992Z,100026.96
2019-03-30T11:43:08.395Z,100018.05
2019-03-30T11:45:36.833Z,100024.56
2019-03-30T11:48:05.560Z,100012.87
2019-03-30T11:50:33.969Z,100011.80
2019-03-30T11:53:02.402Z,100014.70
2019-03-30T11:55:30.807Z,100004.70
2019-03-30T11:57:59.201Z,99994.81
2019-03-30T12:00:27.625Z,99997.59
2019-03-30T12:02:56.031Z,99992.94
2019-03-30T12:05:24.425Z,99990.31
2019-03-30T12:07:52.913Z,99991.52
2019-03-30T12:10:21.309Z,99987.11
2019-03-30T12:12:49.738Z,99980.77
2019-03-30T12:15:18.139Z,99982.11
2019-03-30T12:17:46.535Z,99980.23
2019-03-30T12:20:15.128Z,99974.45
2019-03-30T12:22:43.520Z,99975.80
2019-03-30T12:25:12.396Z,99973.38
2019-03-30T12:27:40.786Z,99967.03
2019-03-30T12:30:09.515Z,99964.56
2019-03-30T12:32:37.939Z,99971.05
2019-03-30T12:35:08.073Z,99961.25
2019-03-30T12:37:37.004Z,99954.94
2019-03-30T12:40:07.057Z,99954.70
2019-03-30T12:42:35.446Z,99950.03
2019-03-30T12:45:05.943Z,99949.02
2019-03-30T12:47:34.339Z,99943.54
2019-03-30T12:50:03.211Z,99946.02
2019-03-30T12:52:31.723Z,99943.77
2019-03-30T12:55:00.383Z,99941.95
2019-03-30T12:57:28.853Z,99940.08
2019-03-30T12:59:59.224Z,99932.76
2019-03-30T13:02:27.458Z,99923.90
2019-03-30T13:04:55.848Z,99919.99
2019-03-30T13:07:24.256Z,99918.83
2019-03-30T13:09:52.714Z,99921.00
2019-03-30T13:12:21.114Z,99929.06
2019-03-30T13:14:49.886Z,99918.16
2019-03-30T13:17:18.340Z,99911.00
2019-03-30T13:19:46.731Z,99912.29
2019-03-30T13:22:15.147Z,99909.06
2019-03-30T13:24:43.538Z,99911.28
2019-03-30T13:27:13.144Z,99899.95
2019-03-30T13:29:41.633Z,99903.95
2019-03-30T13:32:10.031Z,99904.41
2019-03-30T13:34:38.418Z,99902.25
2019-03-30T13:37:17.302Z,99906.27
2019-03-30T13:39:46.137Z,99906.07
2019-03-30T13:42:14.528Z,99902.52
2019-03-30T13:44:42.956Z,99903.06
2019-03-30T13:47:11.351Z,99898.95
2019-03-30T13:49:40.406Z,99893.75
2019-03-30T13:52:08.824Z,99892.00
2019-03-30T13:54:38.731Z,99899.55
2019-03-30T13:57:07.410Z,99886.48
2019-03-30T13:59:36.126Z,99888.10
2019-03-30T14:02:04.522Z,99877.80
2019-03-30T14:04:32.915Z,99868.28
2019-03-30T14:07:01.400Z,99873.47
2019-03-30T14:09:29.788Z,99869.41
2019-03-30T14:11:58.178Z,99866.59
2019-03-30T14:14:26.592Z,99870.87
2019-03-30T14:16:54.983Z,99864.80
2019-03-30T14:19:23.379Z,99872.13
2019-03-30T14:21:51.795Z,99872.62
2019-03-30T14:24:20.185Z,99864.37
2019-03-30T14:26:48.583Z,99858.23
2019-03-30T14:29:17.110Z,99850.03
2019-03-30T14:31:45.510Z,99854.73
2019-03-30T14:34:13.900Z,99854.70
2019-03-30T14:36:42.335Z,99850.03
2019-03-30T14:39:10.823Z,99846.43
2019-03-30T14:41:39.204Z,99847.89
2019-03-30T14:44:07.628Z,99842.58
2019-03-30T14:46:36.017Z,99837.83
2019-03-30T14:49:04.500Z,99840.75
2019-03-30T14:51:32.887Z,99836.66
2019-03-30T14:54:01.359Z,99838.01
2019-03-30T14:56:30.051Z,99840.36
2019-03-30T14:59:09.505Z,99834.68
2019-03-30T15:01:28.560Z,99843.95
2019-03-30T15:03:57.065Z,99827.66
2019-03-30T15:06:25.455Z,99831.68
2019-03-30T15:08:53.851Z,99834.09
2019-03-30T15:11:22.269Z,99827.22
2019-03-30T15:13:50.665Z,99822.24
2019-03-30T15:16:19.049Z,99821.39
2019-03-30T15:18:47.530Z,99820.27
2019-03-30T15:21:15.870Z,99818.39
2019-03-30T15:23:44.565Z,99814.65
2019-03-30T15:26:12.991Z,99811.62
2019-03-30T15:28:42.844Z,99813.08
2019-03-30T15:31:11.469Z,99804.63
2019-03-30T15:33:39.889Z,99799.33
2019-03-30T15:36:08.283Z,99805.36
2019-03-30T15:38:36.677Z,99804.20
2019-03-30T15:41:05.368Z,99802.29
2019-03-30T15:43:38.434Z,99806.86
2019-03-30T15:46:03.948Z,99801.23
2019-03-30T15:48:32.433Z,99798.31
2019-03-30T15:51:00.838Z,99793.91
2019-03-30T15:53:29.238Z,99790.71
2019-03-30T15:55:57.652Z,99791.08
2019-03-30T15:58:26.040Z,99789.19
2019-03-30T16:00:54.433Z,99789.46
2019-03-30T16:03:23.061Z,99788.45
2019-03-30T16:05:51.458Z,99784.09
2019-03-30T16:08:19.850Z,99788.81
2019-03-30T16:10:48.278Z,99787.05
2019-03-30T16:13:16.671Z,99779.41
2019-03-30T16:15:45.082Z,99778.31
2019-03-30T16:18:13.827Z,99778.73
2019-03-30T16:20:42.218Z,99788.20
2019-03-30T16:23:10.617Z,99783.05
2019-03-30T16:25:39.110Z,99779.81
2019-03-30T16:28:07.581Z,99781.70
2019-03-30T16:30:36.044Z,99781.41
2019-03-30T16:33:04.471Z,99780.16
2019-03-30T16:35:32.888Z,99775.31
2019-03-30T16:38:01.272Z,99781.22
2019-03-30T16:40:29.696Z,99778.86
2019-03-30T16:42:58.255Z,99775.41
2019-03-30T16:45:26.818Z,99775.11
2019-03-30T16:47:55.214Z,99780.53
2019-03-30T16:50:23.609Z,99776.75
2019-03-30T16:52:52.012Z,99775.71
2019-03-30T16:55:20.411Z,99785.88
2019-03-30T16:57:48.801Z,99779.06
2019-03-30T17:00:17.742Z,99779.30
2019-03-30T17:02:46.145Z,99776.99
2019-03-30T17:05:14.676Z,99780.65
2019-03-30T17:07:43.415Z,99783.70
2019-03-30T17:10:12.351Z,99775.48
2019-03-30T17:12:40.741Z,99780.61
2019-03-30T17:15:10.020Z,99778.52
2019-03-30T17:17:38.409Z,99781.00
2019-03-30T17:20:08.063Z,99779.44
2019-03-30T17:22:36.451Z,99781.48
2019-03-30T17:25:06.491Z,99778.50
2019-03-30T17:27:35.279Z,99777.73
2019-03-30T17:30:05.512Z,99775.63
2019-03-30T17:32:33.904Z,99775.40
2019-03-30T17:35:02.321Z,99775.28
2019-03-30T17:37:30.706Z,99781.14
2019-03-30T17:39:59.112Z,99780.64
2019-03-30T17:42:27.596Z,99780.55
2019-03-30T17:44:56.251Z,99783.30
2019-03-30T17:47:24.642Z,99785.47
2019-03-30T17:49:53.053Z,99790.30
2019-03-30T17:52:21.792Z,99789.35
2019-03-30T17:54:50.240Z,99798.16
2019-03-30T17:57:18.704Z,99798.13
2019-03-30T17:59:47.097Z,99792.00
2019-03-30T18:02:15.495Z,99791.79
2019-03-30T18:04:43.921Z,99799.62
2019-03-30T18:07:13.792Z,99802.49
2019-03-30T18:09:43.151Z,99805.27
2019-03-30T18:12:11.552Z,99807.23
2019-03-30T18:14:39.977Z,99805.66
2019-03-30T18:17:08.370Z,99816.16
2019-03-30T18:19:37.029Z,99815.27
2019-03-30T18:22:05.449Z,99815.53
2019-03-30T18:24:33.840Z,99821.05
2019-03-30T18:27:02.233Z,99826.16
2019-03-30T18:29:30.650Z,99818.85
2019-03-30T18:31:59.110Z,99824.77
2019-03-30T18:34:28.147Z,99819.66
2019-03-30T18:36:57.006Z,99823.05
2019-03-30T18:39:25.617Z,99828.44
2019-03-30T18:41:53.962Z,99836.56
2019-03-30T18:44:22.539Z,99842.91
2019-03-30T18:46:50.933Z,99848.78
2019-03-30T18:49:19.328Z,99851.15
2019-03-30T18:51:47.892Z,99851.27
2019-03-30T18:54:16.821Z,99852.66
2019-03-30T18:56:45.462Z,99852.78
2019-03-30T18:59:13.953Z,99855.09
2019-03-30T19:01:42.344Z,99852.52
2019-03-30T19:04:10.741Z,99857.48
2019-03-30T19:06:39.169Z,99861.53
2019-03-30T19:09:08.164Z,99865.13
2019-03-30T19:11:36.515Z,99865.19
2019-03-30T19:14:05.179Z,99865.22
2019-03-30T19:16:33.578Z,99869.22
2019-03-30T19:19:01.970Z,99873.21
2019-03-30T19:21:30.391Z,99866.17
2019-03-30T19:23:58.787Z,99875.39
2019-03-30T19:26:27.188Z,99879.34
2019-03-30T19:28:56.856Z,99874.48
2019-03-30T19:31:25.375Z,99880.22
2019-03-30T19:33:53.767Z,99879.32
2019-03-30T19:36:22.204Z,99877.59
2019-03-30T19:38:50.588Z,99884.61
2019-03-30T19:41:18.976Z,99885.94
2019-03-30T19:43:47.392Z,99886.34
2019-03-30T19:46:15.784Z,99884.52
2019-03-30T19:48:44.449Z,99888.89
2019-03-30T19:51:12.836Z,99889.70
2019-03-30T19:53:41.234Z,99888.77
2019-03-30T19:56:09.650Z,99886.92
2019-03-30T19:58:38.058Z,99898.77
2019-03-30T20:01:06.972Z,99890.39
2019-03-30T20:03:35.395Z,99897.84
2019-03-30T20:06:03.787Z,99896.92
2019-03-30T20:08:32.182Z,99898.20
2019-03-30T20:11:00.596Z,99898.46
2019-03-30T20:13:28.993Z,99897.53
2019-03-30T20:15:57.387Z,99898.81
2019-03-30T20:18:25.799Z,99894.09
2019-03-30T20:20:54.194Z,99898.19
2019-03-30T20:23:22.584Z,99901.69
2019-03-30T20:25:51.008Z,99898.92
2019-03-30T20:28:19.403Z,99903.98
2019-03-30T20:30:47.813Z,99909.09
2019-03-30T20:33:16.204Z,99900.09
2019-03-30T20:35:44.596Z,99896.44
2019-03-30T20:38:13.012Z,99895.43
2019-03-30T20:40:41.420Z,99897.06
2019-03-30T20:43:09.812Z,99897.45
2019-03-30T20:45:38.236Z,99896.92
2019-03-30T20:48:06.630Z,99901.26
2019-03-30T20:50:35.007Z,99900.09
2019-03-30T20:53:03.421Z,99907.17
2019-03-30T20:55:33.883Z,99908.05
2019-03-30T20:58:02.363Z,99901.34
2019-03-30T21:00:30.930Z,99902.00
2019-03-30T21:02:59.317Z,99898.31
2019-03-30T21:05:27.777Z,99901.25
2019-03-30T21:07:56.197Z,99905.08
2019-03-30T21:10:24.583Z,99903.15
2019-03-30T21:12:52.970Z,99900.75
2019-03-30T21:15:21.408Z,99901.94
2019-03-30T21:17:49.798Z,99903.59
2019-03-30T21:20:18.192Z,99900.41
2019-03-30T21:22:46.609Z,99901.64
2019-03-30T21:25:15.082Z,99900.58
2019-03-30T21:27:43.474Z,99897.86
2019-03-30T21:30:12.419Z,99898.22
2019-03-30T21:32:40.806Z,99890.28
2019-03-30T21:35:09.264Z,99899.80
2019-03-30T21:37:37.690Z,99891.41
2019-03-30T21:40:06.817Z,99895.62
2019-03-30T21:42:36.221Z,99891.97
2019-03-30T21:45:07.146Z,99892.70
2019-03-30T21:47:35.627Z,99896.87
2019-03-30T21:50:05.670Z,99902.23
2019-03-30T21:52:34.060Z,99896.23
2019-03-30T21:55:02.456Z,99903.44
2019-03-30T21:57:30.877Z,99897.52
2019-03-30T22:00:09.895Z,99906.18
2019-03-30T22:02:29.380Z,99908.28
2019-03-30T22:04:57.785Z,99908.65
2019-03-30T22:07:26.172Z,99907.38
2019-03-30T22:09:54.634Z,99907.45
2019-03-30T22:12:23.044Z,99909.09
2019-03-30T22:14:51.439Z,99905.79
2019-03-30T22:17:19.823Z,99902.96
2019-03-30T22:19:48.235Z,99902.44
2019-03-30T22:22:16.634Z,99907.06
2019-03-30T22:24:45.266Z,99906.12
2019-03-30T22:27:13.656Z,99905.39
2019-03-30T22:29:42.041Z,99904.75
2019-03-30T22:32:10.455Z,99903.37
2019-03-30T22:34:38.839Z,99903.03
2019-03-30T22:37:07.252Z,99902.20
2019-03-30T22:39:35.641Z,99897.19
2019-03-30T22:42:04.198Z,99900.41
2019-03-30T22:44:32.622Z,99899.34
2019-03-30T22:47:01.005Z,99906.62
2019-03-30T22:49:29.397Z,99900.14
2019-03-30T22:51:57.807Z,99906.09
2019-03-30T22:54:26.202Z,99906.23
2019-03-30T22:56:54.593Z,99899.77
2019-03-30T22:59:23.015Z,99901.98
2019-03-30T23:01:51.401Z,99911.27
2019-03-30T23:04:19.786Z,99911.88
2019-03-30T23:06:48.288Z,99913.08
2019-03-30T23:09:16.675Z,99914.31
2019-03-30T23:11:45.076Z,99912.50
2019-03-30T23:14:13.533Z,99912.88
2019-03-30T23:16:41.921Z,99916.98
2019-03-30T23:19:10.311Z,99916.80
2019-03-30T23:21:38.715Z,99920.99
2019-03-30T23:24:07.104Z,99917.34
2019-03-30T23:26:35.521Z,99917.23
2019-03-30T23:29:04.160Z,99912.25
2019-03-30T23:31:32.552Z,99915.27
2019-03-30T23:34:00.935Z,99911.58
2019-03-30T23:36:29.345Z,99906.34
2019-03-30T23:38:57.733Z,99910.68
2019-03-30T23:41:26.122Z,99904.88
2019-03-30T23:43:54.832Z,99906.05
2019-03-30T23:46:23.219Z,99905.23
2019-03-30T23:48:51.611Z,99905.66
2019-03-30T23:51:20.035Z,99900.92
2019-03-30T23:53:48.421Z,99901.98
2019-03-30T23:56:19.852Z,99899.69
2019-03-30T23:58:48.253Z,99903.70
